イースター島 の空港の天気 - METARとTAF

マタベリ国際空港 ( SCIP / IPC ) - チリ イースター島
飛行場実況気象(Metar)
観測時間09/22 17:00 EAST (09/22 22:00 UTC)
風向・風速北西 8m/s
視程10km以上
天気現象
少しの雲 雲底高度 550m
気温22℃
湿度73%
気圧1021hPa
METARSCIP 222200Z 31015KT 9999 FEW018 22/17 Q1021 NOSIG
過去の天気等 Google飛行場航空写真 Wunderground天気予報

過去48時間のMETAR

飛行場予報(TAF)
発表時間: 9/22 11:56 EAST (9/22 16:56 UTC)
予報対象時間: 22日13時 EAST ~ 23日13時 EAST
風向・風速北西 6m/s
視程10km以上
全天の4割程度の雲 雲底高度 1220m
23日0時 EAST ~ 23日9時 EAST に一時的に
風向・風速西 9m/s
視程6000m
天気現象しゅう雨
全天の8割程度の雲 雲底高度 460m
全天の8割程度の雲 雲底高度 760m
23日10時 EAST ~ 23日12時 EAST に徐々に
風向・風速南南西 12m/s
TAF SCIP 221656Z 2218/2318 31012KT 9999 SCT040 TX22/2219Z TN17/2307Z
TEMPO 2305/2314 27017KT 6000 SHRA BKN015 BKN025
BECMG 2315/2317 20024KT